Time;durP1;ratioP1;P1;durP2;ratioP2;P2;SDS_P1;SDS_P2;PMS_P1;PMS_P2;Temp;Humidity;BMP_temperature;BMP_pressure;BME280_temperature;BME280_humidity;BME280_pressure;Samples;Min_cycle;Max_cycle;Signal;HPM_P1;HPM_P2
2021/11/11 00:01:57;;;;;;;35.38;11.77;;;11.90;59.70;;;;;;6225145;28;20139;-80
2021/11/11 00:04:58;;;;;;;25.77;11.25;;;11.80;60.40;;;;;;6257016;28;20131;-80
2021/11/11 00:08:00;;;;;;;25.13;11.85;;;11.80;59.80;;;;;;6269183;28;20072;-80
2021/11/11 00:11:01;;;;;;;24.30;9.57;;;11.80;59.80;;;;;;6268714;28;20042;-80
2021/11/11 00:14:03;;;;;;;22.80;10.13;;;11.80;59.90;;;;;;6265842;28;20033;-80
2021/11/11 00:17:04;;;;;;;33.63;13.02;;;11.70;60.00;;;;;;6271029;28;20099;-80
2021/11/11 00:20:06;;;;;;;28.65;12.07;;;11.70;60.10;;;;;;6255998;28;20038;-80
2021/11/11 00:23:08;;;;;;;31.63;11.32;;;11.60;60.30;;;;;;6227182;28;20034;-80
2021/11/11 00:26:09;;;;;;;30.88;11.63;;;11.60;60.40;;;;;;6251376;28;20048;-80
2021/11/11 00:29:10;;;;;;;31.95;11.80;;;11.60;60.50;;;;;;6256679;28;20092;-81
2021/11/11 00:32:12;;;;;;;28.17;11.43;;;11.60;60.50;;;;;;6274330;28;20045;-80
2021/11/11 00:35:17;;;;;;;27.40;11.90;;;11.60;60.60;;;;;;6268258;28;20049;-79
2021/11/11 00:38:18;;;;;;;24.20;11.48;;;11.60;60.70;;;;;;6243906;28;20033;-80
2021/11/11 00:41:19;;;;;;;22.27;10.55;;;11.60;60.60;;;;;;6264825;28;20033;-80
2021/11/11 00:44:20;;;;;;;25.23;10.85;;;11.60;60.60;;;;;;6252489;28;20043;-80
2021/11/11 00:47:21;;;;;;;33.30;11.35;;;11.60;60.70;;;;;;6266636;28;20060;-80
2021/11/11 00:50:26;;;;;;;29.10;11.98;;;11.70;60.70;;;;;;6263855;28;20098;-80
2021/11/11 00:53:27;;;;;;;27.85;11.95;;;11.70;60.60;;;;;;6231347;28;20136;-80
2021/11/11 00:56:28;;;;;;;24.30;10.75;;;11.70;60.60;;;;;;6251774;28;20038;-80
2021/11/11 00:59:29;;;;;;;24.23;10.95;;;11.70;60.60;;;;;;6250724;28;20050;-80
2021/11/11 01:02:29;;;;;;;28.83;11.40;;;11.70;60.50;;;;;;6255611;28;20102;-80
2021/11/11 01:05:31;;;;;;;27.52;11.45;;;11.70;60.50;;;;;;6259607;28;20451;-79
2021/11/11 01:08:32;;;;;;;24.33;10.85;;;11.70;60.50;;;;;;6255849;28;20363;-79
2021/11/11 01:11:33;;;;;;;27.15;11.50;;;11.70;60.50;;;;;;6243795;28;20045;-79
2021/11/11 01:14:35;;;;;;;21.92;9.52;;;11.70;60.50;;;;;;6271394;28;20096;-81
2021/11/11 01:17:36;;;;;;;25.75;11.40;;;11.80;60.50;;;;;;6263330;28;20121;-80
2021/11/11 01:20:38;;;;;;;27.25;11.45;;;11.80;60.40;;;;;;6266868;28;20113;-80
2021/11/11 01:23:39;;;;;;;18.23;8.98;;;11.80;60.40;;;;;;6257062;28;20033;-80
2021/11/11 01:26:40;;;;;;;31.95;11.02;;;11.80;60.30;;;;;;6257455;28;20041;-80
2021/11/11 01:29:42;;;;;;;27.55;10.20;;;11.90;60.30;;;;;;6273517;28;20056;-80
2021/11/11 01:32:44;;;;;;;26.80;10.90;;;11.90;60.30;;;;;;6272290;28;20037;-79
2021/11/11 01:35:45;;;;;;;27.10;10.43;;;11.90;60.20;;;;;;6266294;28;20047;-79
2021/11/11 01:38:51;;;;;;;22.38;10.63;;;11.90;60.40;;;;;;6272259;28;20041;-80
2021/11/11 01:41:54;;;;;;;28.45;11.35;;;11.90;60.50;;;;;;6274750;28;20124;-79
2021/11/11 01:44:56;;;;;;;26.85;11.18;;;11.80;60.70;;;;;;6256511;28;20040;-79
2021/11/11 01:48:09;;;;;;;30.90;11.88;;;11.80;61.00;;;;;;6259136;28;20467;-79
2021/11/11 01:51:10;;;;;;;32.63;10.82;;;11.80;61.20;;;;;;6267980;28;20048;-79
2021/11/11 01:54:26;;;;;;;32.88;11.23;;;11.80;61.30;;;;;;6277380;28;20409;-81
2021/11/11 01:57:33;;;;;;;21.92;10.35;;;11.80;61.20;;;;;;6277064;28;20099;-79
2021/11/11 02:00:44;;;;;;;25.83;10.73;;;11.80;61.20;;;;;;6277663;28;20358;-80
2021/11/11 02:03:47;;;;;;;31.10;11.18;;;11.80;61.20;;;;;;6258301;28;20037;-79
2021/11/11 02:07:01;;;;;;;26.33;9.82;;;11.80;61.10;;;;;;6269467;28;20063;-79
2021/11/11 02:10:07;;;;;;;26.00;10.30;;;11.80;60.70;;;;;;6274330;28;20128;-80
2021/11/11 02:13:13;;;;;;;31.48;11.68;;;11.70;60.60;;;;;;6246072;28;20045;-80
2021/11/11 02:16:15;;;;;;;37.88;11.63;;;11.60;60.50;;;;;;6260827;28;20466;-79
2021/11/11 02:19:16;;;;;;;26.60;11.43;;;11.60;60.70;;;;;;6259175;28;20037;-79
2021/11/11 02:22:20;;;;;;;26.13;10.18;;;11.60;60.60;;;;;;6255456;28;20045;-80
2021/11/11 02:25:28;;;;;;;24.02;10.15;;;11.60;60.50;;;;;;6271386;28;20377;-79
2021/11/11 02:28:29;;;;;;;24.55;11.07;;;11.60;60.50;;;;;;6259112;28;20044;-79
2021/11/11 02:31:30;;;;;;;24.58;10.15;;;11.60;60.40;;;;;;6253476;28;20465;-80
2021/11/11 02:34:32;;;;;;;25.98;11.02;;;11.60;60.30;;;;;;6266792;28;20033;-80
2021/11/11 02:37:38;;;;;;;26.52;10.52;;;11.60;60.20;;;;;;6256087;28;20112;-80
2021/11/11 02:40:46;;;;;;;19.83;10.57;;;11.70;60.30;;;;;;6253600;28;20060;-80
2021/11/11 02:43:47;;;;;;;23.10;10.20;;;11.70;60.10;;;;;;6243917;28;20053;-80
2021/11/11 02:46:54;;;;;;;22.60;9.77;;;11.70;60.10;;;;;;6254606;28;20112;-79
2021/11/11 02:49:58;;;;;;;23.77;8.95;;;11.80;60.00;;;;;;6228532;28;20041;-80
2021/11/11 02:53:00;;;;;;;30.63;11.65;;;11.80;59.90;;;;;;6226002;28;20471;-79
2021/11/11 02:56:03;;;;;;;22.67;10.55;;;11.90;59.90;;;;;;6241204;28;20483;-80
2021/11/11 02:59:08;;;;;;;29.35;12.48;;;11.90;59.80;;;;;;6238127;28;20046;-80
2021/11/11 03:02:20;;;;;;;28.98;11.48;;;11.90;59.80;;;;;;6252124;28;20052;-80
2021/11/11 03:05:27;;;;;;;27.55;11.00;;;12.00;59.90;;;;;;6274625;28;20037;-80
2021/11/11 03:08:29;;;;;;;20.67;11.00;;;12.00;59.90;;;;;;6234074;28;20374;-79
2021/11/11 03:11:32;;;;;;;21.02;11.13;;;12.00;59.90;;;;;;6252585;28;20061;-80
2021/11/11 03:14:39;;;;;;;31.25;12.63;;;12.00;59.90;;;;;;6251325;28;20111;-80
2021/11/11 03:17:41;;;;;;;28.88;12.75;;;12.00;60.00;;;;;;6231178;28;20037;-80
2021/11/11 03:20:42;;;;;;;29.63;11.95;;;12.10;60.00;;;;;;6252002;28;20076;-80
2021/11/11 03:23:45;;;;;;;28.35;12.07;;;12.00;60.00;;;;;;6249428;28;20045;-79
2021/11/11 03:26:47;;;;;;;28.92;13.57;;;12.00;60.10;;;;;;6253161;28;20125;-79
2021/11/11 03:29:50;;;;;;;32.25;11.60;;;12.00;60.10;;;;;;6250985;28;20107;-79
2021/11/11 03:32:54;;;;;;;26.80;11.57;;;12.10;60.10;;;;;;6264090;28;20129;-80
2021/11/11 03:35:56;;;;;;;36.20;11.95;;;12.10;60.10;;;;;;6256797;28;20049;-80
2021/11/11 03:38:57;;;;;;;28.83;11.02;;;12.00;60.10;;;;;;6239276;28;20041;-79
2021/11/11 03:41:58;;;;;;;29.38;11.98;;;11.90;60.30;;;;;;6229889;28;20033;-78
2021/11/11 03:45:05;;;;;;;22.88;9.98;;;11.80;60.60;;;;;;6254484;28;20029;-79
2021/11/11 03:48:07;;;;;;;29.45;10.43;;;11.80;60.80;;;;;;6255739;28;20462;-79
2021/11/11 03:51:09;;;;;;;37.97;12.75;;;11.70;60.90;;;;;;6248836;28;20049;-80
2021/11/11 03:54:13;;;;;;;28.05;10.60;;;11.70;61.20;;;;;;6246090;28;20033;-80
2021/11/11 03:57:15;;;;;;;25.73;11.25;;;11.70;61.30;;;;;;6238953;28;20045;-80
2021/11/11 04:00:17;;;;;;;30.70;11.80;;;11.60;61.40;;;;;;6247751;28;20022;-80
2021/11/11 04:03:24;;;;;;;26.55;12.65;;;11.60;61.60;;;;;;6246959;28;20056;-80
2021/11/11 04:06:26;;;;;;;28.75;12.07;;;11.50;61.70;;;;;;6233653;28;20041;-78
2021/11/11 04:09:27;;;;;;;30.83;12.95;;;11.40;61.80;;;;;;6238330;28;20022;-79
2021/11/11 04:12:31;;;;;;;31.42;11.23;;;11.40;62.00;;;;;;6246050;28;20045;-79
2021/11/11 04:15:33;;;;;;;26.08;11.68;;;11.30;62.10;;;;;;6247634;28;20060;-79
2021/11/11 04:18:34;;;;;;;31.38;12.65;;;11.30;62.30;;;;;;6232161;28;20029;-79
2021/11/11 04:21:36;;;;;;;22.38;10.75;;;11.30;62.50;;;;;;6250380;28;20021;-79
2021/11/11 04:24:38;;;;;;;27.77;11.07;;;11.20;62.60;;;;;;6249128;28;20413;-79
2021/11/11 04:27:45;;;;;;;25.52;11.48;;;11.20;62.70;;;;;;6234694;28;20062;-79
2021/11/11 04:30:50;;;;;;;23.20;10.75;;;11.20;62.80;;;;;;6248628;28;20115;-79
2021/11/11 04:33:55;;;;;;;24.02;10.98;;;11.10;62.90;;;;;;6209906;28;20460;-80
2021/11/11 04:43:53;;;;;;;;;;;11.10;63.20;;;;;;6266440;28;20094;-80
2021/11/11 05:06:13;;;;;;;24.85;11.60;;;11.10;63.20;;;;;;6170412;28;20102;-80
2021/11/11 05:09:16;;;;;;;27.55;10.50;;;11.10;63.10;;;;;;6153251;28;20038;-79
2021/11/11 05:12:18;;;;;;;29.02;12.15;;;11.10;63.00;;;;;;6171164;28;20105;-79
2021/11/11 05:15:21;;;;;;;26.05;12.07;;;11.10;63.00;;;;;;6155023;28;20046;-79
2021/11/11 05:18:22;;;;;;;26.02;11.32;;;11.10;63.00;;;;;;6152329;28;20059;-80
2021/11/11 05:21:24;;;;;;;30.25;11.60;;;11.10;63.00;;;;;;6159100;28;20097;-80
2021/11/11 05:24:25;;;;;;;31.00;12.10;;;11.10;63.20;;;;;;6159318;28;20023;-80
2021/11/11 05:27:27;;;;;;;26.45;11.52;;;11.00;63.20;;;;;;6160348;28;20027;-80
2021/11/11 05:30:29;;;;;;;24.45;10.73;;;11.00;63.40;;;;;;6177998;28;20524;-79
2021/11/11 05:33:31;;;;;;;28.45;11.05;;;10.90;63.50;;;;;;6175974;28;20123;-79
2021/11/11 05:36:33;;;;;;;31.25;11.65;;;10.90;63.60;;;;;;6163083;28;20042;-79
2021/11/11 05:39:35;;;;;;;29.92;12.50;;;10.90;63.80;;;;;;6220409;28;20111;-79
2021/11/11 05:42:38;;;;;;;32.65;12.60;;;10.90;63.80;;;;;;6279571;28;20037;-80
2021/11/11 05:45:39;;;;;;;35.08;12.65;;;10.90;63.80;;;;;;6270504;28;20355;-80
2021/11/11 05:48:40;;;;;;;30.90;12.23;;;10.90;63.80;;;;;;6261201;28;20037;-79
2021/11/11 05:51:42;;;;;;;25.23;10.07;;;10.90;63.90;;;;;;6270176;28;20037;-80
2021/11/11 05:54:43;;;;;;;25.77;10.35;;;10.90;63.80;;;;;;6277689;28;20060;-79
2021/11/11 05:57:45;;;;;;;26.35;11.45;;;10.90;63.80;;;;;;6275398;28;20029;-80
2021/11/11 06:00:47;;;;;;;48.20;12.60;;;10.90;63.90;;;;;;6277567;28;20125;-80
2021/11/11 06:03:55;;;;;;;30.42;11.27;;;10.90;64.00;;;;;;6275108;28;20058;-80
2021/11/11 06:06:58;;;;;;;27.02;11.50;;;10.90;64.00;;;;;;6277600;28;20414;-79
2021/11/11 06:09:58;;;;;;;30.77;12.32;;;10.90;64.00;;;;;;6263493;28;20041;-80
2021/11/11 06:12:59;;;;;;;30.30;11.70;;;10.90;64.10;;;;;;6277542;28;20120;-81
2021/11/11 06:16:00;;;;;;;30.40;11.00;;;10.90;64.10;;;;;;6269832;28;20052;-80
2021/11/11 06:19:02;;;;;;;42.83;12.02;;;10.80;64.10;;;;;;6272456;28;20116;-78
2021/11/11 06:22:04;;;;;;;27.75;11.00;;;10.90;64.10;;;;;;6260793;28;20187;-80
2021/11/11 06:25:07;;;;;;;25.38;11.80;;;10.80;64.10;;;;;;6276696;28;20351;-79
2021/11/11 06:28:08;;;;;;;36.53;12.90;;;10.80;64.10;;;;;;6256123;28;20033;-79
2021/11/11 06:31:10;;;;;;;28.38;10.55;;;10.70;64.30;;;;;;6270640;28;20351;-79
2021/11/11 06:34:12;;;;;;;35.92;13.73;;;10.70;64.30;;;;;;6259151;28;20029;-79
2021/11/11 06:37:13;;;;;;;33.25;12.02;;;10.70;64.40;;;;;;6276399;28;20048;-79
2021/11/11 06:40:14;;;;;;;28.77;11.93;;;10.70;64.50;;;;;;6277252;28;20105;-80
2021/11/11 06:43:15;;;;;;;30.75;11.73;;;10.60;64.50;;;;;;6250707;28;20102;-79
2021/11/11 06:46:16;;;;;;;31.77;11.88;;;10.60;64.60;;;;;;6272506;28;20044;-79
2021/11/11 06:49:18;;;;;;;23.75;11.18;;;10.60;64.70;;;;;;6263249;28;20469;-80
2021/11/11 06:52:19;;;;;;;27.85;10.50;;;10.60;64.70;;;;;;6220723;28;20045;-70
2021/11/11 06:55:21;;;;;;;26.27;11.90;;;10.60;64.70;;;;;;6231136;28;20047;-76
2021/11/11 06:58:24;;;;;;;30.15;12.00;;;10.60;64.70;;;;;;6236464;28;20467;-75
2021/11/11 07:01:30;;;;;;;27.90;11.85;;;10.60;64.50;;;;;;6242185;28;20037;-75
2021/11/11 07:04:31;;;;;;;27.95;11.90;;;10.60;64.50;;;;;;6266735;28;20035;-75
2021/11/11 07:07:33;;;;;;;30.45;12.75;;;10.60;64.60;;;;;;6268617;28;20347;-76
2021/11/11 07:10:35;;;;;;;37.40;13.13;;;10.50;64.60;;;;;;6246459;28;20045;-75
2021/11/11 07:13:36;;;;;;;32.72;11.82;;;10.60;64.70;;;;;;6237929;28;20048;-75
2021/11/11 07:16:37;;;;;;;24.65;11.48;;;10.60;64.60;;;;;;6251396;28;20053;-75
2021/11/11 07:19:38;;;;;;;32.53;13.07;;;10.60;64.60;;;;;;6232074;28;20029;-76
2021/11/11 07:22:42;;;;;;;27.25;11.20;;;10.50;64.60;;;;;;6245689;28;20363;-77
2021/11/11 07:25:44;;;;;;;32.40;11.40;;;10.50;64.60;;;;;;6261787;28;20029;-76
2021/11/11 07:28:45;;;;;;;32.47;12.48;;;10.50;64.80;;;;;;6264453;28;20037;-76
2021/11/11 07:31:51;;;;;;;33.20;12.57;;;10.60;64.90;;;;;;6245362;28;20048;-77
2021/11/11 07:34:52;;;;;;;33.80;12.35;;;10.60;64.90;;;;;;6225106;28;20057;-78
2021/11/11 07:37:53;;;;;;;32.22;11.70;;;10.60;64.80;;;;;;6240220;28;20062;-76
2021/11/11 07:40:54;;;;;;;27.92;11.20;;;10.70;64.70;;;;;;6267567;28;20040;-77
2021/11/11 07:43:55;;;;;;;28.02;12.25;;;10.70;64.70;;;;;;6268733;28;20064;-77
2021/11/11 07:46:56;;;;;;;35.72;12.63;;;10.80;64.50;;;;;;6257813;28;20379;-77
2021/11/11 07:49:58;;;;;;;27.15;10.63;;;10.80;64.40;;;;;;6243940;28;20421;-77
2021/11/11 07:53:01;;;;;;;37.83;13.30;;;10.90;64.30;;;;;;6245323;28;20072;-78
2021/11/11 07:56:04;;;;;;;30.88;12.65;;;11.00;64.20;;;;;;6262445;28;20038;-74
2021/11/11 07:59:06;;;;;;;30.02;11.27;;;11.00;64.10;;;;;;6250154;28;20041;-76
2021/11/11 08:02:07;;;;;;;31.40;11.73;;;11.10;64.00;;;;;;6219075;28;20530;-80
2021/11/11 08:05:11;;;;;;;35.00;12.75;;;11.20;63.80;;;;;;6253141;28;20041;-79
2021/11/11 08:08:12;;;;;;;30.13;12.73;;;11.20;63.70;;;;;;6251576;28;20080;-72
2021/11/11 08:11:13;;;;;;;29.83;10.80;;;11.30;63.50;;;;;;6249047;28;20038;-73
2021/11/11 08:14:14;;;;;;;31.42;13.77;;;11.30;63.40;;;;;;6223831;28;20034;-72
2021/11/11 08:17:18;;;;;;;32.05;12.32;;;11.40;63.20;;;;;;6240849;28;20095;-71
2021/11/11 08:20:19;;;;;;;35.85;12.32;;;11.50;63.20;;;;;;6234108;28;20143;-73
2021/11/11 08:23:21;;;;;;;29.65;12.00;;;11.50;63.00;;;;;;6224964;28;20034;-73
2021/11/11 08:26:22;;;;;;;30.40;12.77;;;11.50;62.90;;;;;;6239175;28;20049;-72
2021/11/11 08:29:23;;;;;;;28.83;11.65;;;11.50;62.80;;;;;;6240250;28;20037;-72
2021/11/11 08:32:24;;;;;;;28.30;12.52;;;11.50;62.80;;;;;;6258243;28;20236;-81
2021/11/11 08:35:26;;;;;;;30.27;13.07;;;11.60;62.70;;;;;;6257084;28;20069;-81
2021/11/11 08:38:29;;;;;;;29.85;12.05;;;11.60;62.70;;;;;;6247149;28;20407;-81
2021/11/11 08:41:30;;;;;;;30.98;12.63;;;11.70;62.70;;;;;;6256201;28;20107;-80
2021/11/11 08:44:31;;;;;;;31.15;12.43;;;11.80;62.60;;;;;;6237537;28;20029;-81
2021/11/11 08:47:33;;;;;;;34.25;13.98;;;11.90;62.30;;;;;;6242080;28;20033;-81
2021/11/11 08:50:36;;;;;;;32.22;13.27;;;12.00;62.90;;;;;;6233971;28;20099;-81
2021/11/11 08:53:37;;;;;;;35.92;13.30;;;12.10;62.00;;;;;;6229426;28;20121;-79
2021/11/11 08:56:38;;;;;;;31.98;12.43;;;12.30;61.70;;;;;;6235039;28;20081;-81
2021/11/11 08:59:39;;;;;;;27.52;11.90;;;12.30;61.30;;;;;;6242710;28;20044;-76
2021/11/11 09:02:42;;;;;;;29.60;12.10;;;12.40;61.30;;;;;;6223131;28;20512;-76
2021/11/11 09:05:44;;;;;;;30.38;12.27;;;12.50;61.20;;;;;;6233997;28;20100;-76
2021/11/11 09:08:45;;;;;;;23.23;10.32;;;12.60;61.10;;;;;;6222210;28;20172;-75
2021/11/11 09:11:48;;;;;;;33.47;11.70;;;12.60;60.60;;;;;;6225550;28;20038;-75
2021/11/11 09:14:49;;;;;;;35.05;12.15;;;12.70;60.20;;;;;;6236539;28;20159;-75
2021/11/11 09:17:52;;;;;;;29.38;12.10;;;12.70;60.00;;;;;;6233478;28;20068;-77
2021/11/11 09:20:53;;;;;;;27.05;11.02;;;12.80;60.60;;;;;;6246136;28;20124;-75
2021/11/11 09:23:54;;;;;;;34.05;12.77;;;12.90;59.60;;;;;;6248252;28;20033;-77
2021/11/11 09:26:56;;;;;;;36.00;12.48;;;13.00;59.40;;;;;;6251313;28;20068;-78
2021/11/11 09:29:57;;;;;;;33.47;13.43;;;13.10;59.30;;;;;;6246555;28;20048;-77
2021/11/11 09:32:59;;;;;;;29.25;12.40;;;13.20;59.10;;;;;;6243666;28;20045;-78
2021/11/11 09:35:59;;;;;;;32.33;11.95;;;13.30;58.80;;;;;;6252441;28;20517;-78
2021/11/11 09:39:05;;;;;;;30.25;11.82;;;13.40;58.50;;;;;;6244516;28;20084;-77
2021/11/11 09:42:07;;;;;;;32.30;12.68;;;13.40;58.30;;;;;;6246044;28;20045;-75
2021/11/11 09:45:11;;;;;;;29.98;13.13;;;13.40;58.30;;;;;;6247215;28;20057;-77
2021/11/11 09:48:14;;;;;;;51.03;20.08;;;13.40;58.40;;;;;;6240516;28;20041;-73
2021/11/11 09:51:19;;;;;;;37.85;17.17;;;13.40;58.40;;;;;;6246206;28;20434;-78
2021/11/11 09:58:34;;;;;;;37.67;16.20;;;13.50;58.50;;;;;;6250223;28;20088;-77
2021/11/11 10:01:08;;;;;;;40.13;16.45;;;14.00;57.70;;;;;;6245967;28;20029;-78
2021/11/11 10:04:09;;;;;;;34.80;14.00;;;14.20;57.10;;;;;;6243661;28;20038;-77
2021/11/11 10:07:11;;;;;;;39.15;14.50;;;14.20;56.80;;;;;;6248110;28;20025;-77
2021/11/11 10:10:37;;;;;;;30.73;13.15;;;14.20;56.50;;;;;;6258905;28;20029;-77
2021/11/11 10:13:39;;;;;;;29.10;13.15;;;14.20;56.90;;;;;;6262512;28;20124;-77
2021/11/11 10:16:47;;;;;;;35.95;15.32;;;14.30;57.10;;;;;;6271290;28;20026;-76
2021/11/11 10:19:51;;;;;;;43.17;15.80;;;14.50;56.80;;;;;;6257655;28;20495;-77
2021/11/11 10:22:52;;;;;;;43.20;15.65;;;14.80;56.40;;;;;;6275374;28;20049;-76
2021/11/11 10:26:25;;;;;;;36.97;16.05;;;15.00;55.90;;;;;;6274892;28;20037;-76
2021/11/11 10:29:30;;;;;;;34.50;15.00;;;15.30;55.70;;;;;;6264001;28;20051;-76
2021/11/11 10:32:43;;;;;;;40.95;17.08;;;15.60;55.10;;;;;;6247498;28;20037;-77
2021/11/11 10:35:44;;;;;;;46.90;18.60;;;15.90;54.80;;;;;;6259363;28;20033;-76
2021/11/11 10:39:02;;;;;;;61.30;24.60;;;16.10;54.40;;;;;;6262215;28;20038;-78
2021/11/11 10:42:14;;;;;;;36.20;15.88;;;16.40;53.90;;;;;;6262538;28;20046;-78
2021/11/11 10:45:20;;;;;;;34.90;17.25;;;16.70;53.10;;;;;;6227676;28;20044;-76
2021/11/11 10:48:24;;;;;;;43.97;16.23;;;16.90;52.60;;;;;;6251272;28;20112;-78
2021/11/11 10:51:27;;;;;;;29.25;14.70;;;17.20;51.70;;;;;;6229203;28;20043;-77
2021/11/11 10:54:28;;;;;;;39.67;16.35;;;17.50;51.00;;;;;;6243644;28;20036;-76
2021/11/11 10:57:47;;;;;;;34.90;15.85;;;17.70;50.20;;;;;;6227695;28;20034;-77
2021/11/11 11:00:54;;;;;;;29.83;13.40;;;18.00;49.90;;;;;;6236772;28;20465;-77
2021/11/11 11:03:57;;;;;;;40.25;18.13;;;18.20;49.60;;;;;;6242417;28;20036;-77
2021/11/11 11:07:12;;;;;;;45.45;14.82;;;18.40;49.00;;;;;;6239295;28;20037;-77
2021/11/11 11:10:17;;;;;;;37.78;14.80;;;18.70;48.30;;;;;;6243395;28;20125;-75
2021/11/11 11:13:29;;;;;;;37.25;16.98;;;18.90;47.80;;;;;;6268758;28;20042;-78
2021/11/11 11:16:34;;;;;;;33.45;13.93;;;19.20;47.40;;;;;;6243647;28;20029;-79
2021/11/11 11:19:35;;;;;;;39.08;15.55;;;19.20;47.10;;;;;;6241964;28;20075;-76
2021/11/11 11:22:37;;;;;;;29.00;13.82;;;19.20;47.20;;;;;;6240198;28;20041;-77
2021/11/11 11:25:48;;;;;;;27.08;12.55;;;19.30;47.00;;;;;;6231211;28;20038;-78
2021/11/11 11:35:21;;;;;;;52.28;21.02;;;20.00;45.50;;;;;;6227885;28;20088;-76
2021/11/11 11:38:27;;;;;;;31.27;14.90;;;20.40;44.30;;;;;;6233558;28;20037;-77
2021/11/11 11:41:50;;;;;;;40.28;17.35;;;20.40;44.00;;;;;;6242780;28;20371;-76
2021/11/11 11:45:00;;;;;;;33.70;13.70;;;20.00;44.50;;;;;;6224744;28;20057;-77
2021/11/11 11:48:08;;;;;;;53.90;26.63;;;19.70;45.10;;;;;;6259752;28;20036;-76
2021/11/11 11:51:13;;;;;;;43.53;20.33;;;19.50;45.50;;;;;;6243836;28;20053;-77
2021/11/11 11:54:25;;;;;;;32.50;14.93;;;19.40;45.70;;;;;;6223179;28;20179;-76
2021/11/11 11:57:43;;;;;;;33.10;14.93;;;19.20;45.80;;;;;;6247324;28;20041;-77
2021/11/11 12:01:05;;;;;;;35.85;14.98;;;18.80;46.10;;;;;;6249417;28;20044;-77
2021/11/11 12:14:38;;;;;;;38.25;16.50;;;18.00;47.70;;;;;;6218252;28;20052;-77
2021/11/11 12:41:07;;;;;;;33.40;13.95;;;17.50;48.70;;;;;;6224034;28;20046;-78
2021/11/11 12:44:13;;;;;;;34.85;12.90;;;17.50;48.80;;;;;;6242771;28;20037;-78
2021/11/11 12:47:35;;;;;;;36.55;13.05;;;17.50;48.70;;;;;;6243324;28;20025;-79
2021/11/11 12:50:39;;;;;;;38.88;16.02;;;17.50;48.80;;;;;;6249881;28;20041;-77
2021/11/11 12:53:44;;;;;;;29.13;12.35;;;17.50;48.90;;;;;;6232021;28;20048;-77
2021/11/11 12:57:02;;;;;;;28.65;12.60;;;17.60;49.00;;;;;;6219634;28;20471;-77
2021/11/11 13:00:04;;;;;;;33.05;13.40;;;17.70;48.90;;;;;;6248169;28;20059;-77
2021/11/11 13:03:07;;;;;;;30.52;13.35;;;17.60;48.90;;;;;;6242851;28;20052;-78
2021/11/11 13:06:08;;;;;;;32.88;12.48;;;17.60;49.00;;;;;;6246020;28;20036;-78
2021/11/11 13:09:26;;;;;;;30.33;12.98;;;17.50;49.00;;;;;;6253961;28;20167;-77
2021/11/11 13:12:27;;;;;;;26.27;12.15;;;17.50;49.20;;;;;;6236926;28;20072;-78
2021/11/11 13:15:41;;;;;;;33.42;12.48;;;17.50;49.20;;;;;;6220828;28;20065;-79
2021/11/11 13:18:46;;;;;;;37.67;12.70;;;17.50;49.20;;;;;;6239787;28;20047;-77
2021/11/11 13:21:58;;;;;;;29.92;12.43;;;17.60;49.20;;;;;;6244493;28;20049;-77
2021/11/11 15:17:46;;;;;;;21.77;8.88;;;17.50;49.30;;;;;;6230863;28;20457;-78
2021/11/11 15:44:33;;;;;;;15.68;7.57;;;17.50;49.30;;;;;;6219776;28;20049;-77
2021/11/11 16:01:00;;;;;;;22.25;9.23;;;17.00;49.90;;;;;;6285555;28;20119;-78
2021/11/11 16:23:48;;;;;;;25.25;9.35;;;16.60;50.90;;;;;;6292408;28;20132;-77
2021/11/11 16:26:49;;;;;;;22.42;9.82;;;16.60;51.20;;;;;;6250896;28;20408;-77
2021/11/11 16:30:04;;;;;;;23.38;9.93;;;16.50;51.40;;;;;;6268044;28;20103;-77
2021/11/11 16:33:05;;;;;;;22.75;10.68;;;16.50;51.60;;;;;;6267435;28;20043;-76
2021/11/11 16:36:07;;;;;;;20.70;9.40;;;16.40;51.70;;;;;;6258675;28;20164;-77
2021/11/11 16:39:13;;;;;;;22.15;10.48;;;16.40;51.90;;;;;;6269777;28;20120;-77
2021/11/11 16:42:15;;;;;;;25.38;9.10;;;16.30;52.00;;;;;;6253143;28;20098;-77
2021/11/11 16:45:18;;;;;;;26.88;11.55;;;16.30;52.20;;;;;;6249104;28;20029;-78
2021/11/11 16:48:19;;;;;;;26.50;10.57;;;16.20;52.30;;;;;;6266028;28;20072;-77
2021/11/11 16:51:21;;;;;;;27.58;11.68;;;16.20;52.50;;;;;;6268477;28;20044;-77
2021/11/11 16:54:24;;;;;;;36.15;14.75;;;16.10;52.60;;;;;;6266368;28;20357;-76
2021/11/11 16:57:25;;;;;;;38.70;12.02;;;16.10;52.80;;;;;;6254813;28;20034;-77
2021/11/11 17:00:26;;;;;;;33.95;12.93;;;16.00;52.90;;;;;;6255016;28;25769;-77
2021/11/11 17:03:27;;;;;;;34.88;13.93;;;16.00;53.00;;;;;;6251410;28;20071;-77
2021/11/11 17:06:29;;;;;;;24.48;9.73;;;15.90;53.10;;;;;;6261266;28;20049;-76
2021/11/11 17:09:30;;;;;;;19.08;8.50;;;15.90;53.20;;;;;;6249170;28;20359;-76
2021/11/11 17:12:30;;;;;;;27.73;10.68;;;15.90;53.20;;;;;;6254088;28;20048;-77
2021/11/11 17:15:34;;;;;;;21.65;10.20;;;15.80;53.30;;;;;;6247413;28;20041;-77
2021/11/11 17:18:35;;;;;;;21.08;9.43;;;15.80;53.40;;;;;;6273536;28;20083;-77
2021/11/11 17:21:39;;;;;;;19.38;8.90;;;15.70;53.40;;;;;;6256382;28;20039;-77
2021/11/11 17:24:43;;;;;;;19.27;9.55;;;15.70;53.50;;;;;;6268811;28;20037;-78
2021/11/11 17:27:56;;;;;;;26.85;10.90;;;15.60;53.60;;;;;;6274045;28;20029;-78
2021/11/11 17:31:00;;;;;;;25.00;10.63;;;15.60;53.70;;;;;;6237001;28;20456;-70
2021/11/11 17:34:01;;;;;;;28.27;10.85;;;15.60;54.00;;;;;;6265374;28;20034;-77
2021/11/11 17:37:02;;;;;;;31.15;10.20;;;15.50;54.10;;;;;;6220456;28;20464;-77
2021/11/11 17:40:04;;;;;;;27.27;10.55;;;15.50;54.20;;;;;;6244068;28;20052;-75
2021/11/11 17:43:07;;;;;;;33.30;12.85;;;15.40;54.50;;;;;;6240968;28;20041;-70
2021/11/11 17:46:17;;;;;;;31.33;13.02;;;15.40;54.70;;;;;;6257753;28;20126;-75
2021/11/11 17:49:26;;;;;;;25.35;12.98;;;15.30;55.00;;;;;;6265040;28;20104;-75
2021/11/11 17:52:30;;;;;;;41.47;17.92;;;15.20;55.30;;;;;;6262337;28;20124;-77
2021/11/11 17:55:36;;;;;;;78.63;29.45;;;15.20;55.40;;;;;;6267086;28;20037;-77
2021/11/11 17:58:39;;;;;;;71.28;24.30;;;15.10;55.60;;;;;;6264766;28;20412;-77
2021/11/11 18:01:41;;;;;;;56.95;22.52;;;15.10;55.80;;;;;;6250828;28;20072;-77
2021/11/11 18:04:50;;;;;;;41.20;16.02;;;15.10;55.90;;;;;;6240519;28;20048;-77
2021/11/11 18:07:59;;;;;;;44.83;18.10;;;15.00;56.10;;;;;;6243186;28;20073;-78
2021/11/11 18:11:03;;;;;;;47.03;20.17;;;15.00;56.30;;;;;;6241129;28;20429;-77
2021/11/11 18:14:16;;;;;;;34.42;13.75;;;14.90;56.50;;;;;;6246781;28;20183;-77
2021/11/11 18:17:17;;;;;;;24.65;11.52;;;14.90;56.60;;;;;;6241817;28;20036;-76
2021/11/11 18:20:20;;;;;;;33.15;11.43;;;14.80;56.80;;;;;;6223926;28;20033;-77
2021/11/11 18:23:21;;;;;;;33.88;12.77;;;14.80;57.00;;;;;;6236139;28;20059;-77
2021/11/11 18:26:23;;;;;;;33.42;15.27;;;14.80;57.10;;;;;;6236633;28;20053;-75
2021/11/11 18:29:32;;;;;;;28.67;13.05;;;14.70;57.10;;;;;;6227595;28;20680;-78
2021/11/11 18:32:35;;;;;;;40.90;14.50;;;14.70;57.10;;;;;;6216637;28;21885;-76
2021/11/11 18:38:49;;;;;;;28.60;12.00;;;14.70;57.20;;;;;;6215289;28;20048;-77
2021/11/11 18:41:52;;;;;;;28.23;12.93;;;14.70;57.20;;;;;;6209050;28;20068;-77
2021/11/11 18:44:54;;;;;;;27.67;13.27;;;14.70;57.30;;;;;;6202533;28;20428;-78
2021/11/11 18:48:12;;;;;;;28.35;11.93;;;14.60;57.30;;;;;;6209379;28;20041;-77
2021/11/11 18:51:26;;;;;;;28.17;12.45;;;14.60;57.30;;;;;;6212213;28;20072;-77
2021/11/11 18:54:27;;;;;;;33.45;12.98;;;14.60;57.40;;;;;;6206001;28;20049;-76
2021/11/11 18:57:30;;;;;;;24.48;11.20;;;14.50;57.40;;;;;;6205408;28;22808;-79
2021/11/11 19:00:31;;;;;;;26.42;11.57;;;14.50;57.40;;;;;;6209060;28;20152;-76
2021/11/11 19:03:34;;;;;;;31.08;14.32;;;14.50;57.50;;;;;;6203584;28;20350;-76
2021/11/11 19:06:41;;;;;;;30.52;13.60;;;14.50;57.60;;;;;;6202136;28;20041;-77
2021/11/11 19:09:42;;;;;;;35.80;13.13;;;14.50;57.70;;;;;;6196168;28;20146;-76
2021/11/11 19:13:04;;;;;;;38.00;14.52;;;14.40;57.60;;;;;;6209472;28;20132;-76
2021/11/11 19:19:37;;;;;;;29.95;12.98;;;14.40;57.70;;;;;;6231859;28;20099;-76
2021/11/11 19:22:38;;;;;;;29.33;11.95;;;14.40;57.80;;;;;;6243037;28;20033;-76
2021/11/11 19:25:40;;;;;;;31.85;11.77;;;14.30;58.00;;;;;;6231934;28;20223;-77
2021/11/11 19:28:41;;;;;;;45.83;17.23;;;14.30;58.20;;;;;;6243137;28;20041;-75
2021/11/11 19:31:42;;;;;;;38.63;14.35;;;14.20;58.30;;;;;;6258576;28;20057;-78
2021/11/11 19:41:09;;;;;;;46.13;17.13;;;14.10;58.70;;;;;;6239924;28;20029;-76
2021/11/11 19:47:36;;;;;;;48.92;20.45;;;14.10;58.80;;;;;;6256269;28;20029;-75
2021/11/11 19:54:13;;;;;;;33.70;13.68;;;14.10;58.80;;;;;;6251584;28;20055;-69